sensor_id;sensor_type;location;lat;lon;timestamp;P1;durP1;ratioP1;P2;durP2;ratioP2
78781;SDS011;68126;55.748;48.742;2023-08-01T00:04:21;5.15;;;2.17;;
78781;SDS011;68126;55.748;48.742;2023-08-01T00:09:46;4.60;;;2.77;;
78781;SDS011;68126;55.748;48.742;2023-08-01T00:15:11;3.72;;;2.33;;
78781;SDS011;68126;55.748;48.742;2023-08-01T00:20:36;5.90;;;3.45;;
78781;SDS011;68126;55.748;48.742;2023-08-01T00:26:02;5.40;;;2.37;;
78781;SDS011;68126;55.748;48.742;2023-08-01T00:31:26;3.90;;;2.67;;
78781;SDS011;68126;55.748;48.742;2023-08-01T00:36:51;4.15;;;2.25;;
78781;SDS011;68126;55.748;48.742;2023-08-01T00:42:16;7.22;;;2.80;;
78781;SDS011;68126;55.748;48.742;2023-08-01T00:47:41;4.83;;;2.75;;
78781;SDS011;68126;55.748;48.742;2023-08-01T00:53:05;6.97;;;2.87;;
78781;SDS011;68126;55.748;48.742;2023-08-01T00:58:30;6.20;;;3.77;;
78781;SDS011;68126;55.748;48.742;2023-08-01T01:03:55;4.47;;;2.77;;
78781;SDS011;68126;55.748;48.742;2023-08-01T01:09:20;5.45;;;2.92;;
78781;SDS011;68126;55.748;48.742;2023-08-01T01:14:45;4.78;;;3.12;;
78781;SDS011;68126;55.748;48.742;2023-08-01T01:20:10;4.00;;;2.50;;
78781;SDS011;68126;55.748;48.742;2023-08-01T01:25:34;6.12;;;2.55;;
78781;SDS011;68126;55.748;48.742;2023-08-01T01:31:00;4.03;;;2.70;;
78781;SDS011;68126;55.748;48.742;2023-08-01T01:36:26;8.08;;;2.87;;
78781;SDS011;68126;55.748;48.742;2023-08-01T01:41:51;3.37;;;2.55;;
78781;SDS011;68126;55.748;48.742;2023-08-01T01:47:16;4.10;;;2.55;;
78781;SDS011;68126;55.748;48.742;2023-08-01T01:52:41;3.00;;;2.35;;
78781;SDS011;68126;55.748;48.742;2023-08-01T01:58:06;4.10;;;3.00;;
78781;SDS011;68126;55.748;48.742;2023-08-01T02:03:31;3.15;;;2.55;;
78781;SDS011;68126;55.748;48.742;2023-08-01T02:08:55;5.17;;;2.98;;
78781;SDS011;68126;55.748;48.742;2023-08-01T02:14:20;4.17;;;2.85;;
78781;SDS011;68126;55.748;48.742;2023-08-01T02:19:45;3.95;;;2.83;;
78781;SDS011;68126;55.748;48.742;2023-08-01T02:25:10;4.90;;;3.35;;
78781;SDS011;68126;55.748;48.742;2023-08-01T02:30:35;5.58;;;4.20;;
78781;SDS011;68126;55.748;48.742;2023-08-01T02:36:00;5.75;;;3.72;;
78781;SDS011;68126;55.748;48.742;2023-08-01T02:41:25;5.70;;;3.35;;
78781;SDS011;68126;55.748;48.742;2023-08-01T02:46:50;4.75;;;3.20;;
78781;SDS011;68126;55.748;48.742;2023-08-01T02:52:15;5.20;;;3.70;;
78781;SDS011;68126;55.748;48.742;2023-08-01T02:57:39;4.17;;;2.95;;
78781;SDS011;68126;55.748;48.742;2023-08-01T03:03:04;4.55;;;2.95;;
78781;SDS011;68126;55.748;48.742;2023-08-01T03:08:29;5.47;;;3.05;;
78781;SDS011;68126;55.748;48.742;2023-08-01T03:13:53;4.58;;;2.92;;
78781;SDS011;68126;55.748;48.742;2023-08-01T03:19:18;6.17;;;4.42;;
78781;SDS011;68126;55.748;48.742;2023-08-01T03:24:43;5.40;;;3.15;;
78781;SDS011;68126;55.748;48.742;2023-08-01T03:30:08;4.90;;;2.87;;
78781;SDS011;68126;55.748;48.742;2023-08-01T03:35:33;3.67;;;3.27;;
78781;SDS011;68126;55.748;48.742;2023-08-01T03:40:58;6.37;;;4.12;;
78781;SDS011;68126;55.748;48.742;2023-08-01T03:46:23;5.42;;;3.05;;
78781;SDS011;68126;55.748;48.742;2023-08-01T03:51:48;5.42;;;3.40;;
78781;SDS011;68126;55.748;48.742;2023-08-01T03:57:12;9.53;;;3.90;;
78781;SDS011;68126;55.748;48.742;2023-08-01T04:08:04;6.37;;;3.85;;
78781;SDS011;68126;55.748;48.742;2023-08-01T04:13:29;4.70;;;3.05;;
78781;SDS011;68126;55.748;48.742;2023-08-01T04:18:53;4.10;;;2.90;;
78781;SDS011;68126;55.748;48.742;2023-08-01T04:24:18;13.43;;;4.12;;
78781;SDS011;68126;55.748;48.742;2023-08-01T04:29:43;4.42;;;2.72;;
78781;SDS011;68126;55.748;48.742;2023-08-01T04:40:36;4.53;;;2.15;;
78781;SDS011;68126;55.748;48.742;2023-08-01T04:46:01;3.42;;;2.40;;
78781;SDS011;68126;55.748;48.742;2023-08-01T04:51:25;4.60;;;1.80;;
78781;SDS011;68126;55.748;48.742;2023-08-01T04:56:50;1.75;;;0.98;;
78781;SDS011;68126;55.748;48.742;2023-08-01T05:02:15;2.67;;;2.30;;
78781;SDS011;68126;55.748;48.742;2023-08-01T05:07:40;2.98;;;0.85;;
78781;SDS011;68126;55.748;48.742;2023-08-01T05:13:07;2.10;;;0.85;;
78781;SDS011;68126;55.748;48.742;2023-08-01T05:18:31;4.47;;;0.72;;
78781;SDS011;68126;55.748;48.742;2023-08-01T05:23:56;2.70;;;0.72;;
78781;SDS011;68126;55.748;48.742;2023-08-01T05:29:21;2.42;;;0.60;;
78781;SDS011;68126;55.748;48.742;2023-08-01T05:35:06;2.55;;;1.80;;
78781;SDS011;68126;55.748;48.742;2023-08-01T05:40:31;5.55;;;2.37;;
78781;SDS011;68126;55.748;48.742;2023-08-01T05:45:56;5.37;;;1.65;;
78781;SDS011;68126;55.748;48.742;2023-08-01T05:51:21;4.37;;;1.75;;
78781;SDS011;68126;55.748;48.742;2023-08-01T05:56:46;4.87;;;2.02;;
78781;SDS011;68126;55.748;48.742;2023-08-01T06:02:11;4.85;;;2.75;;
78781;SDS011;68126;55.748;48.742;2023-08-01T06:07:37;3.08;;;2.17;;
78781;SDS011;68126;55.748;48.742;2023-08-01T06:13:02;2.77;;;1.35;;
78781;SDS011;68126;55.748;48.742;2023-08-01T06:18:27;2.75;;;1.22;;
78781;SDS011;68126;55.748;48.742;2023-08-01T06:23:56;3.95;;;1.98;;
78781;SDS011;68126;55.748;48.742;2023-08-01T06:29:22;4.70;;;2.02;;
78781;SDS011;68126;55.748;48.742;2023-08-01T06:34:47;4.45;;;1.70;;
78781;SDS011;68126;55.748;48.742;2023-08-01T06:40:12;4.40;;;1.55;;
78781;SDS011;68126;55.748;48.742;2023-08-01T06:45:37;3.05;;;1.60;;
78781;SDS011;68126;55.748;48.742;2023-08-01T06:51:03;6.97;;;2.25;;
78781;SDS011;68126;55.748;48.742;2023-08-01T06:56:28;3.65;;;1.80;;
78781;SDS011;68126;55.748;48.742;2023-08-01T07:01:53;3.47;;;1.62;;
78781;SDS011;68126;55.748;48.742;2023-08-01T07:07:18;3.08;;;1.32;;
78781;SDS011;68126;55.748;48.742;2023-08-01T07:12:42;3.62;;;1.20;;
78781;SDS011;68126;55.748;48.742;2023-08-01T07:18:07;4.22;;;1.90;;
78781;SDS011;68126;55.748;48.742;2023-08-01T07:23:33;2.95;;;1.77;;
78781;SDS011;68126;55.748;48.742;2023-08-01T07:29:17;3.95;;;1.22;;
78781;SDS011;68126;55.748;48.742;2023-08-01T07:34:42;3.58;;;1.60;;
78781;SDS011;68126;55.748;48.742;2023-08-01T07:40:07;2.30;;;1.55;;
78781;SDS011;68126;55.748;48.742;2023-08-01T07:57:20;2.20;;;1.27;;
78781;SDS011;68126;55.748;48.742;2023-08-01T08:02:45;6.65;;;1.98;;
78781;SDS011;68126;55.748;48.742;2023-08-01T08:08:45;6.78;;;1.45;;
78781;SDS011;68126;55.748;48.742;2023-08-01T08:13:36;4.25;;;1.85;;
78781;SDS011;68126;55.748;48.742;2023-08-01T08:19:01;5.22;;;1.47;;
78781;SDS011;68126;55.748;48.742;2023-08-01T08:24:28;2.77;;;2.10;;
78781;SDS011;68126;55.748;48.742;2023-08-01T08:29:54;6.12;;;1.70;;
78781;SDS011;68126;55.748;48.742;2023-08-01T08:35:19;3.45;;;1.82;;
78781;SDS011;68126;55.748;48.742;2023-08-01T08:40:48;3.58;;;1.52;;
78781;SDS011;68126;55.748;48.742;2023-08-01T08:46:12;4.15;;;1.75;;
78781;SDS011;68126;55.748;48.742;2023-08-01T08:51:38;4.83;;;1.85;;
78781;SDS011;68126;55.748;48.742;2023-08-01T08:57:05;3.02;;;2.12;;
78781;SDS011;68126;55.748;48.742;2023-08-01T09:07:55;3.95;;;2.20;;
78781;SDS011;68126;55.748;48.742;2023-08-01T09:13:20;3.45;;;1.82;;
78781;SDS011;68126;55.748;48.742;2023-08-01T09:24:31;3.47;;;1.37;;
78781;SDS011;68126;55.748;48.742;2023-08-01T09:30:04;5.03;;;1.52;;
78781;SDS011;68126;55.748;48.742;2023-08-01T09:35:22;2.87;;;1.60;;
78781;SDS011;68126;55.748;48.742;2023-08-01T09:40:47;2.58;;;1.05;;
78781;SDS011;68126;55.748;48.742;2023-08-01T09:46:12;3.87;;;1.57;;
78781;SDS011;68126;55.748;48.742;2023-08-01T09:57:23;2.67;;;1.50;;
78781;SDS011;68126;55.748;48.742;2023-08-01T10:02:50;3.92;;;1.72;;
78781;SDS011;68126;55.748;48.742;2023-08-01T10:08:15;7.28;;;1.47;;
78781;SDS011;68126;55.748;48.742;2023-08-01T10:19:06;3.40;;;1.82;;
78781;SDS011;68126;55.748;48.742;2023-08-01T10:24:34;6.20;;;1.42;;
78781;SDS011;68126;55.748;48.742;2023-08-01T10:30:00;3.65;;;1.72;;
78781;SDS011;68126;55.748;48.742;2023-08-01T10:47:00;2.67;;;1.55;;
78781;SDS011;68126;55.748;48.742;2023-08-01T10:52:27;3.37;;;1.52;;
78781;SDS011;68126;55.748;48.742;2023-08-01T10:57:52;3.33;;;2.33;;
78781;SDS011;68126;55.748;48.742;2023-08-01T11:03:52;5.30;;;1.98;;
78781;SDS011;68126;55.748;48.742;2023-08-01T11:08:47;3.85;;;2.12;;
78781;SDS011;68126;55.748;48.742;2023-08-01T11:14:12;3.25;;;1.77;;
78781;SDS011;68126;55.748;48.742;2023-08-01T11:19:36;4.42;;;1.60;;
78781;SDS011;68126;55.748;48.742;2023-08-01T11:25:01;4.50;;;1.87;;
78781;SDS011;68126;55.748;48.742;2023-08-01T11:36:31;2.98;;;1.40;;
78781;SDS011;68126;55.748;48.742;2023-08-01T11:41:56;2.42;;;1.70;;
78781;SDS011;68126;55.748;48.742;2023-08-01T11:47:21;2.67;;;0.57;;
78781;SDS011;68126;55.748;48.742;2023-08-01T11:52:48;4.10;;;0.72;;
78781;SDS011;68126;55.748;48.742;2023-08-01T11:58:12;1.90;;;1.32;;
78781;SDS011;68126;55.748;48.742;2023-08-01T12:09:22;1.72;;;1.02;;
78781;SDS011;68126;55.748;48.742;2023-08-01T12:14:47;1.55;;;0.78;;
78781;SDS011;68126;55.748;48.742;2023-08-01T12:20:12;3.83;;;1.17;;
78781;SDS011;68126;55.748;48.742;2023-08-01T12:25:37;2.95;;;0.70;;
78781;SDS011;68126;55.748;48.742;2023-08-01T12:31:01;3.00;;;1.07;;
78781;SDS011;68126;55.748;48.742;2023-08-01T12:36:26;2.22;;;1.12;;
78781;SDS011;68126;55.748;48.742;2023-08-01T12:41:51;3.72;;;0.80;;
78781;SDS011;68126;55.748;48.742;2023-08-01T12:47:16;1.67;;;0.75;;
78781;SDS011;68126;55.748;48.742;2023-08-01T12:52:41;1.60;;;1.10;;
78781;SDS011;68126;55.748;48.742;2023-08-01T12:58:06;1.35;;;0.78;;
78781;SDS011;68126;55.748;48.742;2023-08-01T13:03:31;2.62;;;0.93;;
78781;SDS011;68126;55.748;48.742;2023-08-01T13:08:55;4.67;;;2.67;;
78781;SDS011;68126;55.748;48.742;2023-08-01T13:14:21;2.60;;;1.07;;
78781;SDS011;68126;55.748;48.742;2023-08-01T13:19:45;3.40;;;1.30;;
78781;SDS011;68126;55.748;48.742;2023-08-01T13:25:10;4.60;;;1.65;;
78781;SDS011;68126;55.748;48.742;2023-08-01T13:30:35;5.45;;;2.02;;
78781;SDS011;68126;55.748;48.742;2023-08-01T13:36:00;5.17;;;2.20;;
78781;SDS011;68126;55.748;48.742;2023-08-01T13:41:25;3.45;;;1.40;;
78781;SDS011;68126;55.748;48.742;2023-08-01T13:46:49;2.98;;;1.15;;
78781;SDS011;68126;55.748;48.742;2023-08-01T13:52:15;1.82;;;0.90;;
78781;SDS011;68126;55.748;48.742;2023-08-01T13:57:40;2.92;;;0.98;;
78781;SDS011;68126;55.748;48.742;2023-08-01T14:03:04;1.75;;;0.88;;
78781;SDS011;68126;55.748;48.742;2023-08-01T14:08:29;2.35;;;0.50;;
78781;SDS011;68126;55.748;48.742;2023-08-01T14:13:54;2.95;;;0.82;;
78781;SDS011;68126;55.748;48.742;2023-08-01T14:19:19;4.87;;;2.10;;
78781;SDS011;68126;55.748;48.742;2023-08-01T14:24:44;6.65;;;1.30;;
78781;SDS011;68126;55.748;48.742;2023-08-01T14:30:09;1.35;;;0.90;;
78781;SDS011;68126;55.748;48.742;2023-08-01T14:35:34;4.03;;;1.47;;
78781;SDS011;68126;55.748;48.742;2023-08-01T14:41:01;2.20;;;0.85;;
78781;SDS011;68126;55.748;48.742;2023-08-01T14:46:25;4.12;;;1.42;;
78781;SDS011;68126;55.748;48.742;2023-08-01T14:51:50;2.37;;;1.32;;
78781;SDS011;68126;55.748;48.742;2023-08-01T14:57:34;3.90;;;1.70;;
78781;SDS011;68126;55.748;48.742;2023-08-01T15:02:59;2.55;;;1.35;;
78781;SDS011;68126;55.748;48.742;2023-08-01T15:08:24;3.45;;;1.22;;
78781;SDS011;68126;55.748;48.742;2023-08-01T15:13:49;2.58;;;1.07;;
78781;SDS011;68126;55.748;48.742;2023-08-01T15:19:13;2.83;;;1.47;;
78781;SDS011;68126;55.748;48.742;2023-08-01T15:24:38;1.50;;;0.68;;
78781;SDS011;68126;55.748;48.742;2023-08-01T15:30:03;1.80;;;0.98;;
78781;SDS011;68126;55.748;48.742;2023-08-01T15:35:28;2.30;;;0.85;;
78781;SDS011;68126;55.748;48.742;2023-08-01T15:40:53;1.42;;;0.80;;
78781;SDS011;68126;55.748;48.742;2023-08-01T15:46:18;1.40;;;1.05;;
78781;SDS011;68126;55.748;48.742;2023-08-01T15:51:43;2.27;;;1.15;;
78781;SDS011;68126;55.748;48.742;2023-08-01T15:57:08;3.10;;;1.27;;
78781;SDS011;68126;55.748;48.742;2023-08-01T16:02:52;2.98;;;1.15;;
78781;SDS011;68126;55.748;48.742;2023-08-01T16:08:16;3.62;;;1.07;;
78781;SDS011;68126;55.748;48.742;2023-08-01T16:13:41;1.85;;;1.35;;
78781;SDS011;68126;55.748;48.742;2023-08-01T16:19:06;1.72;;;0.75;;
78781;SDS011;68126;55.748;48.742;2023-08-01T16:24:31;2.45;;;2.10;;
78781;SDS011;68126;55.748;48.742;2023-08-01T16:29:55;2.67;;;1.57;;
78781;SDS011;68126;55.748;48.742;2023-08-01T16:35:20;4.12;;;1.27;;
78781;SDS011;68126;55.748;48.742;2023-08-01T16:40:45;7.33;;;3.83;;
78781;SDS011;68126;55.748;48.742;2023-08-01T16:46:10;2.92;;;1.57;;
78781;SDS011;68126;55.748;48.742;2023-08-01T16:51:35;2.65;;;1.98;;
78781;SDS011;68126;55.748;48.742;2023-08-01T16:57:01;2.72;;;2.05;;
78781;SDS011;68126;55.748;48.742;2023-08-01T17:02:26;2.37;;;1.52;;
78781;SDS011;68126;55.748;48.742;2023-08-01T17:07:51;2.52;;;1.57;;
78781;SDS011;68126;55.748;48.742;2023-08-01T17:13:16;2.12;;;1.10;;
78781;SDS011;68126;55.748;48.742;2023-08-01T17:18:40;3.30;;;1.70;;
78781;SDS011;68126;55.748;48.742;2023-08-01T17:24:44;3.90;;;1.92;;
78781;SDS011;68126;55.748;48.742;2023-08-01T17:29:34;2.80;;;2.15;;
78781;SDS011;68126;55.748;48.742;2023-08-01T17:34:59;3.55;;;2.12;;
78781;SDS011;68126;55.748;48.742;2023-08-01T17:40:24;3.22;;;1.85;;
78781;SDS011;68126;55.748;48.742;2023-08-01T17:45:49;2.60;;;1.80;;
78781;SDS011;68126;55.748;48.742;2023-08-01T17:51:13;4.67;;;2.15;;
78781;SDS011;68126;55.748;48.742;2023-08-01T17:56:40;2.72;;;1.77;;
78781;SDS011;68126;55.748;48.742;2023-08-01T18:02:05;2.75;;;1.95;;
78781;SDS011;68126;55.748;48.742;2023-08-01T18:07:32;2.77;;;1.90;;
78781;SDS011;68126;55.748;48.742;2023-08-01T18:12:58;3.52;;;2.10;;
78781;SDS011;68126;55.748;48.742;2023-08-01T18:18:44;5.35;;;2.00;;
78781;SDS011;68126;55.748;48.742;2023-08-01T18:24:09;3.00;;;2.37;;
78781;SDS011;68126;55.748;48.742;2023-08-01T18:29:35;5.00;;;2.65;;
78781;SDS011;68126;55.748;48.742;2023-08-01T18:34:59;4.83;;;2.92;;
78781;SDS011;68126;55.748;48.742;2023-08-01T18:40:24;6.85;;;2.80;;
78781;SDS011;68126;55.748;48.742;2023-08-01T18:51:35;4.35;;;2.50;;
78781;SDS011;68126;55.748;48.742;2023-08-01T18:57:00;4.28;;;3.00;;
78781;SDS011;68126;55.748;48.742;2023-08-01T19:02:25;6.30;;;3.40;;
78781;SDS011;68126;55.748;48.742;2023-08-01T19:07:52;4.47;;;2.80;;
78781;SDS011;68126;55.748;48.742;2023-08-01T19:13:19;6.25;;;2.72;;
78781;SDS011;68126;55.748;48.742;2023-08-01T19:18:43;4.53;;;2.95;;
78781;SDS011;68126;55.748;48.742;2023-08-01T19:24:08;5.35;;;2.60;;
78781;SDS011;68126;55.748;48.742;2023-08-01T19:29:35;4.00;;;2.52;;
78781;SDS011;68126;55.748;48.742;2023-08-01T19:34:59;4.83;;;2.58;;
78781;SDS011;68126;55.748;48.742;2023-08-01T19:40:25;5.90;;;2.62;;
78781;SDS011;68126;55.748;48.742;2023-08-01T19:45:50;4.10;;;1.80;;
78781;SDS011;68126;55.748;48.742;2023-08-01T19:51:16;6.45;;;2.22;;
78781;SDS011;68126;55.748;48.742;2023-08-01T19:56:41;4.40;;;2.67;;
78781;SDS011;68126;55.748;48.742;2023-08-01T20:02:06;4.40;;;3.95;;
78781;SDS011;68126;55.748;48.742;2023-08-01T20:07:31;6.03;;;3.08;;
78781;SDS011;68126;55.748;48.742;2023-08-01T20:12:56;6.58;;;3.37;;
78781;SDS011;68126;55.748;48.742;2023-08-01T20:18:21;4.83;;;3.35;;
78781;SDS011;68126;55.748;48.742;2023-08-01T20:23:46;6.03;;;3.25;;
78781;SDS011;68126;55.748;48.742;2023-08-01T20:29:10;6.12;;;3.15;;
78781;SDS011;68126;55.748;48.742;2023-08-01T20:34:35;6.53;;;3.87;;
78781;SDS011;68126;55.748;48.742;2023-08-01T20:40:00;4.92;;;3.17;;
78781;SDS011;68126;55.748;48.742;2023-08-01T20:45:25;8.30;;;3.30;;
78781;SDS011;68126;55.748;48.742;2023-08-01T20:50:50;6.87;;;3.02;;
78781;SDS011;68126;55.748;48.742;2023-08-01T20:56:59;3.87;;;2.90;;
78781;SDS011;68126;55.748;48.742;2023-08-01T21:02:31;4.65;;;2.62;;
78781;SDS011;68126;55.748;48.742;2023-08-01T21:08:00;5.28;;;3.22;;
78781;SDS011;68126;55.748;48.742;2023-08-01T21:13:30;3.40;;;2.47;;
78781;SDS011;68126;55.748;48.742;2023-08-01T21:18:55;4.72;;;2.65;;
78781;SDS011;68126;55.748;48.742;2023-08-01T21:24:19;5.10;;;3.35;;
78781;SDS011;68126;55.748;48.742;2023-08-01T21:29:44;4.70;;;2.87;;
78781;SDS011;68126;55.748;48.742;2023-08-01T21:35:29;4.95;;;2.52;;
78781;SDS011;68126;55.748;48.742;2023-08-01T21:40:54;6.78;;;2.72;;
78781;SDS011;68126;55.748;48.742;2023-08-01T21:46:19;6.75;;;2.70;;
78781;SDS011;68126;55.748;48.742;2023-08-01T21:51:44;4.58;;;2.52;;
78781;SDS011;68126;55.748;48.742;2023-08-01T21:57:08;4.70;;;3.20;;
78781;SDS011;68126;55.748;48.742;2023-08-01T22:02:33;4.72;;;3.20;;
78781;SDS011;68126;55.748;48.742;2023-08-01T22:07:58;5.97;;;2.50;;
78781;SDS011;68126;55.748;48.742;2023-08-01T22:13:23;3.95;;;2.80;;
78781;SDS011;68126;55.748;48.742;2023-08-01T22:18:48;6.15;;;2.85;;
78781;SDS011;68126;55.748;48.742;2023-08-01T22:24:13;4.65;;;2.83;;
78781;SDS011;68126;55.748;48.742;2023-08-01T22:29:39;6.30;;;2.98;;
78781;SDS011;68126;55.748;48.742;2023-08-01T22:35:04;4.37;;;3.25;;
78781;SDS011;68126;55.748;48.742;2023-08-01T22:40:29;4.25;;;3.10;;
78781;SDS011;68126;55.748;48.742;2023-08-01T22:45:54;3.95;;;2.95;;
78781;SDS011;68126;55.748;48.742;2023-08-01T22:51:19;5.47;;;3.45;;
78781;SDS011;68126;55.748;48.742;2023-08-01T22:56:44;5.65;;;3.20;;
78781;SDS011;68126;55.748;48.742;2023-08-01T23:02:09;5.20;;;3.08;;
78781;SDS011;68126;55.748;48.742;2023-08-01T23:07:33;9.05;;;3.67;;
78781;SDS011;68126;55.748;48.742;2023-08-01T23:12:58;6.28;;;3.35;;
78781;SDS011;68126;55.748;48.742;2023-08-01T23:18:24;4.67;;;3.33;;
78781;SDS011;68126;55.748;48.742;2023-08-01T23:23:49;5.00;;;3.33;;
78781;SDS011;68126;55.748;48.742;2023-08-01T23:29:14;5.50;;;3.25;;
78781;SDS011;68126;55.748;48.742;2023-08-01T23:34:39;4.67;;;2.90;;
78781;SDS011;68126;55.748;48.742;2023-08-01T23:40:04;7.45;;;3.67;;
78781;SDS011;68126;55.748;48.742;2023-08-01T23:45:29;7.97;;;3.47;;
78781;SDS011;68126;55.748;48.742;2023-08-01T23:50:53;6.33;;;3.42;;
78781;SDS011;68126;55.748;48.742;2023-08-01T23:56:18;6.35;;;4.03;;
